Terminal Aerodrome Forecast
Issued by NWS

Home | Current Version | Previous Version | Graphics & Text | Print | Product List | Glossary On
Versions: 1 2 3 4 5 6 7 8 9 10 11 12 13 14 15 16 17 18 19 20 21 22
000
FTUS41 KCLE 161300 AAA
TAFFDY
TAF AMD
KFDY 161321Z 1613/1712 32006KT P6SM SCT015 BKN025
      TEMPO 1613/1615 BKN015
     FM161500 34006KT P6SM SCT025
     FM161630 32006KT P6SM SCT045
     FM170200 26003KT P6SM SKC=

USA.gov is the U.S. government's official web portal to all federal, state and local government web resources and services.